Time;durP1;ratioP1;P1;durP2;ratioP2;P2;SDS_P1;SDS_P2;PMS_P1;PMS_P2;Temp;Humidity;BMP_temperature;BMP_pressure;BME280_temperature;BME280_humidity;BME280_pressure;Samples;Min_cycle;Max_cycle;Signal;HPM_P1;HPM_P2
2022/04/01 00:00:19;;;;;;;2.70;1.83;;;;;;;18.15;57.15;96449.66;2080357;28;20049;-52
2022/04/01 00:01:21;;;;;;;6.18;2.33;;;;;;;18.13;57.26;96449.06;2080312;28;20148;-55
2022/04/01 00:02:22;;;;;;;3.30;2.38;;;;;;;18.13;57.06;96451.75;2082574;28;20069;-48
2022/04/01 00:03:23;;;;;;;;;;;;;;;18.01;57.60;96454.59;2080419;28;20052;-53
2022/04/01 00:04:24;;;;;;;3.50;1.50;;;;;;;18.04;57.56;96454.91;2083009;28;19964;-57
2022/04/01 00:05:26;;;;;;;;;;;;;;;17.96;57.68;96449.97;2082099;28;20044;-52
2022/04/01 00:06:26;;;;;;;2.72;1.52;;;;;;;18.01;57.53;96454.59;2083029;28;20464;-53
2022/04/01 00:07:28;;;;;;;;;;;;;;;17.95;57.66;96456.41;2074393;28;20055;-51
2022/04/01 00:08:30;;;;;;;;;;;;;;;17.89;57.91;96449.38;2082486;28;19928;-53
2022/04/01 00:09:32;;;;;;;2.13;1.63;;;;;;;17.96;57.71;96458.03;2081080;28;19925;-53
2022/04/01 00:10:33;;;;;;;2.88;2.05;;;;;;;18.01;57.61;96457.28;2082897;28;20530;-49
2022/04/01 00:11:35;;;;;;;3.20;2.53;;;;;;;18.04;57.22;96452.22;2081932;28;20110;-46
2022/04/01 00:12:39;;;;;;;2.72;1.90;;;;;;;18.04;57.15;96456.78;2083370;28;20593;-50
2022/04/01 00:13:41;;;;;;;3.25;2.05;;;;;;;18.06;57.20;96451.97;2077249;28;20530;-56
2022/04/01 00:14:41;;;;;;;6.55;2.03;;;;;;;18.07;57.17;96440.97;2078367;28;20053;-50
2022/04/01 00:15:43;;;;;;;;;;;;;;;17.96;57.37;96449.97;2076579;28;20049;-53
2022/04/01 00:16:44;;;;;;;2.92;1.77;;;;;;;17.99;57.33;96446.00;2077534;28;20379;-51
2022/04/01 00:17:46;;;;;;;;;;;;;;;17.92;57.48;96453.44;2081062;28;20059;-49
2022/04/01 00:18:46;;;;;;;3.60;1.48;;;;;;;17.96;57.51;96449.97;2076818;28;19925;-55
2022/04/01 00:19:48;;;;;;;;;;;;;;;17.88;57.65;96453.09;2076799;28;20512;-48
2022/04/01 00:20:49;;;;;;;4.38;2.40;;;;;;;17.93;57.74;96455.84;2081392;28;19928;-53
2022/04/01 00:21:51;;;;;;;;;;;;;;;17.85;57.69;96457.09;2080535;28;20127;-51
2022/04/01 00:22:52;;;;;;;5.53;2.10;;;;;;;17.93;57.59;96450.50;2080496;28;20532;-52
2022/04/01 00:23:55;;;;;;;5.75;1.92;;;;;;;17.96;57.50;96447.31;2082716;28;20136;-50
2022/04/01 00:24:57;;;;;;;3.58;1.50;;;;;;;17.98;57.27;96453.22;2082554;28;20073;-52
2022/04/01 00:25:59;;;;;;;3.90;2.58;;;;;;;17.98;57.27;96447.88;2079741;28;20450;-50
2022/04/01 00:27:00;;;;;;;4.90;2.08;;;;;;;18.00;57.17;96451.13;2076215;28;20105;-50
2022/04/01 00:28:02;;;;;;;2.83;1.90;;;;;;;18.01;57.18;96451.91;2084171;28;20045;-51
2022/04/01 00:29:14;;;;;;;2.67;1.60;;;;;;;17.99;57.03;96443.31;2080081;28;20053;-51
2022/04/01 00:30:16;;;;;;;3.33;1.90;;;;;;;17.98;57.21;96433.66;2077827;28;20041;-48
2022/04/01 00:31:17;;;;;;;4.50;2.03;;;;;;;18.00;57.28;96442.25;2081822;28;20044;-52
2022/04/01 00:32:19;;;;;;;;;;;;;;;17.88;57.40;96436.22;2079385;28;21188;-50
2022/04/01 00:33:19;;;;;;;4.13;1.95;;;;;;;17.90;57.46;96440.28;2082385;28;20015;-51
2022/04/01 00:34:21;;;;;;;;;;;;;;;17.83;57.62;96437.78;2078411;28;20045;-49
2022/04/01 00:35:23;;;;;;;;;;;;;;;17.76;57.83;96439.00;2081615;28;19928;-52
2022/04/01 00:36:23;;;;;;;;;;;;;;;17.72;57.87;96436.03;2081149;28;19932;-49
2022/04/01 00:37:25;;;;;;;2.67;2.10;;;;;;;17.81;57.76;96431.88;2079039;28;20448;-52
2022/04/01 00:38:26;;;;;;;2.85;2.20;;;;;;;17.85;57.57;96422.25;2081384;28;20634;-51
2022/04/01 00:39:31;;;;;;;;;;;;;;;17.77;57.68;96428.03;2082941;28;20048;-51
2022/04/01 00:40:33;;;;;;;5.05;2.08;;;;;;;17.83;57.63;96431.63;2081454;28;19920;-53
2022/04/01 00:41:33;;;;;;;3.95;2.03;;;;;;;17.88;57.56;96431.66;2082550;28;20049;-49
2022/04/01 00:42:35;;;;;;;;;;;;;;;17.79;57.48;96422.44;2082085;28;20110;-55
2022/04/01 00:43:36;;;;;;;2.88;1.80;;;;;;;17.85;57.39;96424.94;2082436;28;19936;-51
2022/04/01 00:44:38;;;;;;;;;;;;;;;17.75;57.50;96413.28;2084155;28;21252;-50
2022/04/01 00:45:39;;;;;;;3.08;2.15;;;;;;;17.81;57.65;96421.16;2081051;28;19921;-54
2022/04/01 00:46:41;;;;;;;;;;;;;;;17.74;57.75;96419.69;2080798;28;20095;-51
2022/04/01 00:47:43;;;;;;;;;;;;;;;17.68;57.89;96416.13;2073254;28;20447;-51
2022/04/01 00:48:44;;;;;;;5.07;2.10;;;;;;;17.75;57.76;96418.63;2081058;28;19976;-52
2022/04/01 00:49:46;;;;;;;;;;;;;;;17.71;57.93;96422.88;2084011;28;20542;-51
2022/04/01 00:50:48;;;;;;;5.35;2.05;;;;;;;17.76;57.66;96418.38;2081883;28;19936;-55
2022/04/01 00:51:52;;;;;;;3.30;1.80;;;;;;;17.82;57.50;96421.94;2082808;28;20195;-53
2022/04/01 00:52:53;;;;;;;5.15;1.73;;;;;;;17.83;57.38;96421.72;2083591;28;20578;-52
2022/04/01 00:53:56;;;;;;;3.33;1.33;;;;;;;17.85;57.36;96416.88;2080400;28;20053;-51
2022/04/01 00:55:01;;;;;;;2.35;1.73;;;;;;;17.86;57.25;96410.47;2078031;28;20045;-50
2022/04/01 00:56:02;;;;;;;2.33;1.98;;;;;;;17.86;57.30;96423.06;2083090;28;20072;-51
2022/04/01 00:57:05;;;;;;;3.90;1.90;;;;;;;17.88;57.17;96417.44;2081362;28;20045;-49
2022/04/01 00:58:09;;;;;;;4.15;1.98;;;;;;;17.85;57.22;96410.72;2083038;28;20045;-51
2022/04/01 00:59:12;;;;;;;5.80;1.77;;;;;;;17.86;57.35;96420.41;2080864;28;20411;-49
2022/04/01 01:00:15;;;;;;;4.03;1.90;;;;;;;17.85;57.34;96416.06;2081234;28;20490;-48
2022/04/01 01:01:16;;;;;;;4.07;1.63;;;;;;;17.86;57.21;96409.66;2081259;28;20552;-52
2022/04/01 01:02:17;;;;;;;;;;;;;;;17.74;57.37;96408.97;2076251;28;20041;-50
2022/04/01 01:03:20;;;;;;;5.30;1.73;;;;;;;17.77;57.41;96411.13;2078706;28;19948;-51
2022/04/01 01:04:23;;;;;;;2.58;1.70;;;;;;;17.80;57.37;96413.34;2079780;28;20045;-49
2022/04/01 01:05:24;;;;;;;3.10;1.90;;;;;;;17.82;57.38;96409.34;2081144;28;20141;-48
2022/04/01 01:06:27;;;;;;;3.38;1.67;;;;;;;17.83;57.18;96410.19;2082703;28;20064;-50
2022/04/01 01:07:30;;;;;;;5.63;2.20;;;;;;;17.83;57.17;96415.53;2081676;28;20522;-49
2022/04/01 01:08:32;;;;;;;5.32;3.22;;;;;;;17.83;57.19;96407.50;2080661;28;20391;-51
2022/04/01 01:09:33;;;;;;;5.65;2.25;;;;;;;17.83;57.29;96404.81;2082547;28;20049;-49
2022/04/01 01:10:36;;;;;;;;;;;;;;;17.71;57.49;96404.91;2081046;28;20601;-48
2022/04/01 01:11:37;;;;;;;2.42;1.77;;;;;;;17.75;57.41;96405.22;2082218;28;19920;-50
2022/04/01 01:12:41;;;;;;;4.00;1.60;;;;;;;17.78;57.26;96400.19;2079846;28;20060;-49
2022/04/01 01:13:42;;;;;;;5.15;1.60;;;;;;;17.79;57.19;96409.84;2077872;28;20076;-49
2022/04/01 01:14:44;;;;;;;;;;;;;;;17.68;57.54;96400.06;2078563;28;20145;-51
2022/04/01 01:15:46;;;;;;;4.97;2.33;;;;;;;17.70;57.73;96403.28;2078187;28;19966;-51
2022/04/01 01:16:48;;;;;;;9.38;2.63;;;;;;;17.74;57.28;96401.72;2078780;28;20111;-53
2022/04/01 01:17:49;;;;;;;3.00;1.90;;;;;;;17.77;57.27;96403.88;2079647;28;20060;-48
2022/04/01 01:19:01;;;;;;;5.15;2.03;;;;;;;17.77;57.26;96400.41;2078189;28;20079;-52
2022/04/01 01:20:03;;;;;;;4.15;2.05;;;;;;;17.78;57.35;96402.03;2079479;28;20060;-51
2022/04/01 01:21:09;;;;;;;1.98;1.40;;;;;;;17.77;57.28;96395.84;2081634;28;20044;-49
2022/04/01 01:22:12;;;;;;;4.20;1.92;;;;;;;17.78;57.22;96399.38;2080535;28;20415;-50
2022/04/01 01:23:14;;;;;;;2.30;1.52;;;;;;;17.77;57.22;96403.09;2080612;28;20048;-51
2022/04/01 01:24:17;;;;;;;4.07;1.70;;;;;;;17.77;57.21;96397.72;2082996;28;20041;-49
2022/04/01 01:25:20;;;;;;;8.15;3.08;;;;;;;17.76;57.18;96399.59;2079664;28;20589;-47
2022/04/01 01:26:22;;;;;;;3.17;1.67;;;;;;;17.74;57.27;96390.19;2080437;28;20740;-52
2022/04/01 01:27:24;;;;;;;4.20;1.90;;;;;;;17.74;57.22;96395.56;2080099;28;20753;-55
2022/04/01 01:28:25;;;;;;;5.05;1.58;;;;;;;17.76;57.26;96401.47;2082628;28;20044;-50
2022/04/01 01:29:27;;;;;;;;;;;;;;;17.63;57.47;96398.13;2078737;28;20564;-50
2022/04/01 01:30:28;;;;;;;4.75;2.30;;;;;;;17.68;57.49;96399.25;2080787;28;19929;-54
2022/04/01 01:31:30;;;;;;;;;;;;;;;17.59;57.65;96402.38;2080730;28;20119;-57
2022/04/01 01:32:32;;;;;;;2.72;1.55;;;;;;;17.64;57.56;96399.75;2079965;28;19935;-55
2022/04/01 01:33:34;;;;;;;2.97;2.38;;;;;;;17.68;57.30;96408.09;2081145;28;20068;-55
2022/04/01 01:34:35;;;;;;;4.10;1.50;;;;;;;17.69;57.29;96399.00;2077790;28;20052;-56
2022/04/01 01:35:36;;;;;;;;;;;;;;;17.59;57.52;96401.56;2078785;28;20049;-50
2022/04/01 01:36:37;;;;;;;;;;;;;;;17.51;57.76;96402.00;2083679;28;20935;-53
2022/04/01 01:37:39;;;;;;;1.83;1.52;;;;;;;17.59;57.69;96407.72;2080377;28;20011;-53
2022/04/01 01:38:40;;;;;;;3.58;1.70;;;;;;;17.64;57.35;96404.31;2080758;28;20049;-55
2022/04/01 01:39:41;;;;;;;;;;;;;;;17.54;57.73;96402.31;2083878;28;20118;-57
2022/04/01 01:40:44;;;;;;;3.13;2.17;;;;;;;17.59;57.55;96396.19;2081360;28;20266;-52
2022/04/01 01:41:46;;;;;;;3.22;1.92;;;;;;;17.64;57.47;96404.31;2080961;28;20037;-52
2022/04/01 01:42:47;;;;;;;5.25;1.90;;;;;;;17.65;57.41;96406.72;2080788;28;20081;-55
2022/04/01 01:43:49;;;;;;;;;;;;;;;17.55;57.64;96401.25;2081921;28;20080;-53
2022/04/01 01:44:50;;;;;;;3.33;1.45;;;;;;;17.59;57.51;96401.56;2081241;28;19982;-50
2022/04/01 01:45:52;;;;;;;;;;;;;;;17.51;57.79;96400.13;2082749;28;20099;-54
2022/04/01 01:46:54;;;;;;;4.45;2.13;;;;;;;17.57;57.46;96399.13;2081651;28;20521;-50
2022/04/01 01:47:56;;;;;;;4.38;2.55;;;;;;;17.61;57.45;96402.94;2077354;28;20045;-51
2022/04/01 01:48:57;;;;;;;;;;;;;;;17.53;57.69;96402.56;2082578;28;20628;-50
2022/04/01 01:55:17;;;;;;;3.42;1.67;;;;;;;17.58;57.58;96399.97;2081798;28;20037;-52
2022/04/01 01:56:19;;;;;;;5.57;2.10;;;;;;;17.61;57.25;96402.94;2082925;28;20174;-49
2022/04/01 01:57:22;;;;;;;5.90;2.05;;;;;;;17.63;57.45;96411.53;2076902;28;20041;-51
2022/04/01 01:58:23;;;;;;;3.63;1.92;;;;;;;17.62;57.28;96409.91;2079205;28;20542;-51
2022/04/01 01:59:24;;;;;;;;;;;;;;;17.51;57.57;96416.22;2076088;28;20053;-56
2022/04/01 02:00:25;;;;;;;3.72;1.63;;;;;;;17.54;57.57;96405.00;2082429;28;20451;-51
2022/04/01 02:01:27;;;;;;;;;;;;;;;17.47;57.58;96408.91;2080776;28;20049;-51
2022/04/01 02:02:27;;;;;;;6.07;1.30;;;;;;;17.53;57.65;96399.91;2079770;28;20457;-50
2022/04/01 02:03:30;;;;;;;;;;;;;;;17.42;57.84;96399.75;2082239;28;20052;-51
2022/04/01 02:04:31;;;;;;;4.00;1.50;;;;;;;17.50;57.70;96401.19;2079845;28;19929;-51
2022/04/01 02:05:34;;;;;;;;;;;;;;;17.41;57.80;96390.13;2081361;28;20120;-50
2022/04/01 02:06:35;;;;;;;2.97;1.65;;;;;;;17.49;57.71;96394.19;2081291;28;19985;-49
2022/04/01 02:07:37;;;;;;;2.00;1.67;;;;;;;17.54;57.41;96393.47;2079372;28;20050;-52
2022/04/01 02:08:38;;;;;;;2.50;1.60;;;;;;;17.56;57.41;96386.78;2079625;28;20168;-51
2022/04/01 02:09:43;;;;;;;;;;;;;;;17.46;57.63;96392.03;2080982;28;20052;-50
2022/04/01 02:10:44;;;;;;;3.85;2.67;;;;;;;17.51;57.60;96389.41;2081227;28;19956;-50
2022/04/01 02:11:47;;;;;;;;;;;;;;;17.42;57.68;96388.25;2082618;28;20547;-50
2022/04/01 02:12:48;;;;;;;2.38;2.03;;;;;;;17.49;57.74;96391.53;2079146;28;19920;-53
2022/04/01 02:13:50;;;;;;;;;;;;;;;17.41;57.80;96392.81;2081597;28;20057;-50
2022/04/01 02:14:52;;;;;;;4.63;1.98;;;;;;;17.48;57.58;96381.88;2082132;28;19947;-50
2022/04/01 02:15:53;;;;;;;4.28;1.75;;;;;;;17.52;57.43;96380.28;2080682;28;20056;-52
2022/04/01 02:16:56;;;;;;;5.10;1.98;;;;;;;17.54;57.30;96383.53;2077288;28;20061;-51
2022/04/01 02:17:56;;;;;;;2.72;2.42;;;;;;;17.57;57.26;96380.34;2080518;28;20045;-51
2022/04/01 02:18:58;;;;;;;;;;;;;;;17.46;57.57;96373.28;2080210;28;20052;-50
2022/04/01 02:19:59;;;;;;;4.50;1.80;;;;;;;17.51;57.57;96377.88;2079102;28;19925;-50
2022/04/01 02:21:00;;;;;;;;;;;;;;;17.40;57.51;96374.28;2080955;28;20045;-51
2022/04/01 02:22:01;;;;;;;2.08;1.10;;;;;;;17.44;57.69;96378.09;2083092;28;20023;-52
2022/04/01 02:23:03;;;;;;;;;;;;;;;17.37;57.79;96369.41;2081206;28;20064;-51
2022/04/01 02:24:06;;;;;;;3.70;1.77;;;;;;;17.42;57.51;96369.47;2081458;28;20540;-53
2022/04/01 02:25:11;;;;;;;3.53;2.03;;;;;;;17.46;57.55;96370.59;2077956;28;20096;-51
2022/04/01 02:26:12;;;;;;;4.65;1.98;;;;;;;17.49;57.55;96374.63;2079802;28;20095;-56
2022/04/01 02:27:17;;;;;;;5.93;2.22;;;;;;;17.51;57.34;96367.97;2079584;28;20138;-53
2022/04/01 02:28:18;;;;;;;4.22;1.65;;;;;;;17.51;57.39;96373.34;2082857;28;20060;-53
2022/04/01 02:29:21;;;;;;;;;;;;;;;17.41;57.52;96367.84;2071545;28;20406;-55
2022/04/01 02:30:22;;;;;;;3.05;1.92;;;;;;;17.46;57.59;96367.09;2075114;28;20508;-52
2022/04/01 02:31:23;;;;;;;;;;;;;;;17.36;57.74;96368.63;2081554;28;20627;-54
2022/04/01 02:32:25;;;;;;;;;;;;;;;17.32;57.88;96369.34;2082252;28;20279;-48
2022/04/01 02:33:27;;;;;;;7.07;1.98;;;;;;;17.37;57.80;96364.06;2075911;28;19979;-52
2022/04/01 02:34:28;;;;;;;2.85;1.50;;;;;;;17.42;57.55;96364.13;2082426;28;20045;-53
2022/04/01 02:35:30;;;;;;;;;;;;;;;17.36;57.66;96360.56;2083360;28;20052;-55
2022/04/01 02:36:31;;;;;;;2.85;1.60;;;;;;;17.40;57.67;96360.88;2078696;28;20577;-53
2022/04/01 02:37:32;;;;;;;;;;;;;;;17.33;57.85;96365.63;2081181;28;20040;-51
2022/04/01 02:38:33;;;;;;;3.55;1.90;;;;;;;17.39;57.62;96361.94;2079227;28;20765;-54
2022/04/01 02:39:35;;;;;;;;;;;;;;;17.32;57.89;96359.44;2081100;28;20071;-48
2022/04/01 02:40:36;;;;;;;;;;;;;;;17.27;58.02;96359.38;2082559;28;19921;-50
2022/04/01 02:41:41;;;;;;;3.03;1.75;;;;;;;17.35;57.73;96356.25;2078058;28;19924;-50
2022/04/01 02:42:43;;;;;;;3.40;2.03;;;;;;;17.39;57.53;96354.72;2079214;28;20132;-50
2022/04/01 02:43:45;;;;;;;3.30;1.42;;;;;;;17.44;57.59;96356.66;2070177;28;20040;-49
2022/04/01 02:44:46;;;;;;;2.50;2.00;;;;;;;17.45;57.50;96358.25;2073760;28;20170;-49
2022/04/01 02:45:49;;;;;;;1.83;1.58;;;;;;;17.45;57.38;96347.53;2082198;28;20053;-48
2022/04/01 02:46:50;;;;;;;1.67;1.20;;;;;;;17.45;57.34;96346.75;2080840;28;20530;-49
2022/04/01 02:47:52;;;;;;;;;;;;;;;17.35;57.68;96352.78;2081841;28;20052;-51
2022/04/01 02:48:54;;;;;;;3.05;1.40;;;;;;;17.41;57.58;96357.13;2082637;28;19921;-48
2022/04/01 02:49:56;;;;;;;3.22;1.65;;;;;;;17.42;57.41;96353.41;2079865;28;20053;-49
2022/04/01 02:50:57;;;;;;;2.40;1.50;;;;;;;17.42;57.33;96356.88;2080949;28;20055;-49
2022/04/01 02:51:59;;;;;;;3.00;1.45;;;;;;;17.42;57.39;96359.56;2079586;28;20532;-49
2022/04/01 02:53:01;;;;;;;5.15;1.85;;;;;;;17.43;57.31;96365.72;2078412;28;20118;-50
2022/04/01 02:54:04;;;;;;;2.70;1.60;;;;;;;17.44;57.33;96364.69;2082363;28;20053;-50
2022/04/01 02:55:06;;;;;;;3.25;1.90;;;;;;;17.44;57.35;96362.00;2081395;28;20055;-49
2022/04/01 02:56:07;;;;;;;1.77;1.58;;;;;;;17.47;57.32;96369.53;2082502;28;20048;-49
2022/04/01 02:57:09;;;;;;;3.83;1.38;;;;;;;17.48;57.29;96363.13;2083470;28;20128;-49
2022/04/01 02:58:12;;;;;;;2.08;1.38;;;;;;;17.45;57.37;96365.50;2082766;28;20063;-48
2022/04/01 02:59:14;;;;;;;1.70;1.25;;;;;;;17.45;57.39;96368.19;2079628;28;20049;-51
2022/04/01 03:00:21;;;;;;;2.53;1.25;;;;;;;17.46;57.32;96369.78;2082037;28;20423;-49
2022/04/01 03:01:23;;;;;;;3.30;1.90;;;;;;;17.43;57.46;96371.91;2073738;28;20068;-50
2022/04/01 03:02:24;;;;;;;3.33;1.58;;;;;;;17.43;57.37;96365.72;2076752;28;20094;-53
2022/04/01 03:03:26;;;;;;;1.98;1.60;;;;;;;17.44;57.33;96364.69;2074042;28;20071;-51
2022/04/01 03:04:27;;;;;;;;;;;;;;;17.33;57.52;96371.00;2081192;28;20068;-50
2022/04/01 03:05:29;;;;;;;2.03;1.20;;;;;;;17.36;57.49;96365.13;2078657;28;19921;-51
2022/04/01 03:06:33;;;;;;;6.10;2.10;;;;;;;17.39;57.43;96361.94;2082621;28;20097;-51
2022/04/01 03:07:34;;;;;;;3.15;1.67;;;;;;;17.42;57.28;96364.13;2078668;28;20052;-48
2022/04/01 03:08:35;;;;;;;;;;;;;;;17.31;57.65;96362.38;2082279;28;20056;-51
2022/04/01 03:09:36;;;;;;;;;;;;;;;17.24;57.83;96361.75;2079674;28;19973;-54
2022/04/01 03:10:42;;;;;;;2.70;2.25;;;;;;;17.30;57.72;96358.91;2081732;28;19921;-48
2022/04/01 03:11:42;;;;;;;3.88;1.73;;;;;;;17.32;57.63;96356.75;2082648;28;20052;-53
2022/04/01 03:12:44;;;;;;;;;;;;;;;17.25;57.57;96355.34;2081813;28;20048;-51
2022/04/01 03:13:46;;;;;;;5.03;1.88;;;;;;;17.30;57.69;96350.88;2080598;28;19925;-51
2022/04/01 03:14:48;;;;;;;3.45;2.20;;;;;;;17.33;57.57;96361.09;2082454;28;20149;-53
2022/04/01 03:15:49;;;;;;;3.80;1.65;;;;;;;17.37;57.57;96350.66;2077198;28;20053;-53
2022/04/01 03:16:51;;;;;;;;;;;;;;;17.27;57.72;96354.03;2083300;28;20053;-54
2022/04/01 03:17:52;;;;;;;4.18;1.38;;;;;;;17.30;57.64;96358.91;2078155;28;20476;-53
2022/04/01 03:18:57;;;;;;;;;;;;;;;17.25;57.70;96358.03;2082698;28;20056;-49
2022/04/01 03:19:59;;;;;;;1.67;1.27;;;;;;;17.31;57.59;96351.66;2079465;28;20445;-54
2022/04/01 03:21:01;;;;;;;4.90;1.63;;;;;;;17.35;57.41;96352.78;2079285;28;20045;-51
2022/04/01 03:22:03;;;;;;;2.13;1.50;;;;;;;17.34;57.57;96351.97;2080101;28;20053;-53
2022/04/01 03:23:06;;;;;;;3.13;1.85;;;;;;;17.37;57.46;96345.31;2080462;28;20037;-56
2022/04/01 03:24:09;;;;;;;2.63;1.45;;;;;;;17.35;57.37;96339.38;2074574;28;20515;-54
2022/04/01 03:25:15;;;;;;;1.65;1.35;;;;;;;17.37;57.40;96342.63;2078404;28;20128;-54
2022/04/01 03:26:16;;;;;;;2.92;1.38;;;;;;;17.35;57.43;96348.22;2077086;28;20584;-56
2022/04/01 03:27:17;;;;;;;;;;;;;;;17.26;57.61;96340.91;2078686;28;20052;-54
2022/04/01 03:28:18;;;;;;;2.70;1.50;;;;;;;17.32;57.49;96347.94;2073692;28;19924;-49
2022/04/01 03:29:21;;;;;;;;;;;;;;;17.20;57.79;96343.50;2078739;28;20048;-53
2022/04/01 03:30:22;;;;;;;3.00;1.17;;;;;;;17.25;57.72;96340.09;2075666;28;19936;-54
2022/04/01 03:31:23;;;;;;;;;;;;;;;17.19;57.85;96343.78;2082075;28;20494;-51
2022/04/01 03:32:26;;;;;;;3.97;1.98;;;;;;;17.25;57.75;96342.78;2082644;28;19920;-51
2022/04/01 03:33:28;;;;;;;2.47;1.58;;;;;;;17.30;57.54;96347.34;2079032;28;20044;-51
2022/04/01 03:34:29;;;;;;;4.68;1.42;;;;;;;17.31;57.42;96341.75;2082422;28;20040;-50
2022/04/01 03:35:32;;;;;;;;;;;;;;;17.21;57.62;96338.94;2079954;28;20555;-51
2022/04/01 03:36:35;;;;;;;2.65;1.65;;;;;;;17.28;57.59;96344.13;2082723;28;19920;-49
2022/04/01 03:37:36;;;;;;;2.78;2.13;;;;;;;17.31;57.43;96347.13;2080671;28;20542;-50
2022/04/01 03:38:38;;;;;;;;;;;;;;;17.23;57.56;96344.88;2078611;28;20045;-51
2022/04/01 03:39:41;;;;;;;1.98;1.70;;;;;;;17.26;57.57;96341.69;2079011;28;19973;-51
2022/04/01 03:40:48;;;;;;;3.75;1.67;;;;;;;17.28;57.54;96341.47;2079620;28;20068;-49
2022/04/01 03:41:49;;;;;;;2.28;1.50;;;;;;;17.30;57.49;96350.03;2080452;28;20060;-51
2022/04/01 03:42:52;;;;;;;3.53;1.48;;;;;;;17.32;57.42;96343.38;2082592;28;20083;-53
2022/04/01 03:43:53;;;;;;;3.92;2.17;;;;;;;17.32;57.45;96350.59;2080075;28;20498;-51
2022/04/01 03:44:56;;;;;;;;;;;;;;;17.22;57.62;96345.13;2078769;28;20136;-51
2022/04/01 03:45:58;;;;;;;2.53;1.55;;;;;;;17.24;57.60;96340.31;2080201;28;19931;-49
2022/04/01 03:47:10;;;;;;;3.05;1.73;;;;;;;17.27;57.50;96337.94;2077952;28;20056;-49
2022/04/01 03:48:17;;;;;;;2.38;1.52;;;;;;;17.29;57.42;96338.50;2083699;28;20128;-49
2022/04/01 03:49:23;;;;;;;1.58;1.00;;;;;;;17.31;57.36;96343.63;2075270;28;20060;-50
2022/04/01 03:50:29;;;;;;;6.85;1.60;;;;;;;17.29;57.31;96335.84;2081550;28;20045;-50
2022/04/01 03:51:32;;;;;;;3.05;1.60;;;;;;;17.31;57.30;96327.56;2079691;28;20045;-52
2022/04/01 03:52:33;;;;;;;2.15;1.48;;;;;;;17.30;57.36;96340.16;2077136;28;20088;-51
2022/04/01 03:53:35;;;;;;;;;;;;;;;17.18;57.66;96337.59;2081783;28;20722;-51
2022/04/01 03:54:41;;;;;;;2.75;1.55;;;;;;;17.22;57.53;96337.91;2081945;28;19924;-49
2022/04/01 03:55:47;;;;;;;3.70;1.75;;;;;;;17.26;57.46;96341.69;2079706;28;20110;-50
2022/04/01 03:56:57;;;;;;;2.00;1.38;;;;;;;17.28;57.40;96342.25;2080414;28;20080;-51
2022/04/01 03:58:02;;;;;;;2.70;1.48;;;;;;;17.29;57.33;96340.38;2077424;28;20131;-51
2022/04/01 03:59:05;;;;;;;6.00;1.48;;;;;;;17.30;57.30;96334.78;2083291;28;20443;-52
2022/04/01 04:00:12;;;;;;;3.80;1.50;;;;;;;17.29;57.35;96337.72;2082743;28;20056;-49
2022/04/01 04:01:14;;;;;;;1.55;1.40;;;;;;;17.29;57.36;96332.34;2081975;28;20045;-51
2022/04/01 04:02:15;;;;;;;2.17;1.38;;;;;;;17.30;57.39;96339.31;2082646;28;20037;-50
2022/04/01 04:03:17;;;;;;;;;;;;;;;17.18;57.48;96334.91;2077431;28;20040;-48
2022/04/01 04:04:18;;;;;;;;;;;;;;;17.10;57.77;96334.53;2085581;28;19925;-52
2022/04/01 04:05:22;;;;;;;2.00;1.63;;;;;;;17.17;57.63;96335.97;2077558;28;19947;-51
2022/04/01 04:06:24;;;;;;;2.35;1.40;;;;;;;17.22;57.56;96340.59;2080570;28;20053;-51
2022/04/01 04:07:26;;;;;;;3.42;1.40;;;;;;;17.28;57.25;96336.09;2077173;28;20077;-50
2022/04/01 04:08:27;;;;;;;3.13;1.40;;;;;;;17.32;57.26;96338.00;2082181;28;20071;-49
2022/04/01 04:09:30;;;;;;;2.22;1.35;;;;;;;17.36;57.12;96336.47;2080566;28;20051;-51
2022/04/01 04:10:32;;;;;;;1.80;1.23;;;;;;;17.40;56.96;96336.75;2081567;28;20137;-50
2022/04/01 04:11:35;;;;;;;1.20;1.10;;;;;;;17.42;56.88;96334.66;2081298;28;20076;-50
2022/04/01 04:12:36;;;;;;;3.63;2.08;;;;;;;17.48;56.80;96336.31;2081782;28;20037;-51
2022/04/01 04:13:38;;;;;;;;;;;;;;;17.40;56.47;96334.88;2078905;28;20140;-50
2022/04/01 04:14:40;;;;;;;3.15;1.48;;;;;;;17.46;56.11;96335.75;2082759;28;19924;-50
2022/04/01 04:15:50;;;;;;;3.22;1.58;;;;;;;17.53;55.96;96335.56;2081373;28;20056;-49
2022/04/01 04:16:56;;;;;;;2.42;1.42;;;;;;;17.58;55.85;96335.63;2082686;28;20191;-49
2022/04/01 04:18:00;;;;;;;1.83;1.25;;;;;;;17.59;55.83;96342.59;2084739;28;20083;-49
2022/04/01 04:19:08;;;;;;;1.75;1.27;;;;;;;17.60;55.87;96334.28;2083100;28;20407;-52
2022/04/01 04:20:13;;;;;;;2.50;1.10;;;;;;;17.63;55.80;96339.16;2081633;28;20128;-49
2022/04/01 04:21:25;;;;;;;1.52;1.00;;;;;;;17.65;55.51;96337.03;2083622;28;20049;-49
2022/04/01 04:22:29;;;;;;;;;;;;;;;17.60;55.81;96334.28;2079888;28;20048;-49
2022/04/01 04:23:36;;;;;;;3.75;1.48;;;;;;;17.67;55.51;96331.41;2081549;28;19964;-50
2022/04/01 04:24:42;;;;;;;2.90;1.83;;;;;;;17.73;55.49;96326.91;2079797;28;20079;-48
2022/04/01 04:25:53;;;;;;;5.13;1.45;;;;;;;17.77;55.57;96333.38;2085008;28;20575;-49
2022/04/01 04:27:01;;;;;;;3.50;1.95;;;;;;;17.79;55.28;96333.97;2080055;28;20707;-48
2022/04/01 04:28:09;;;;;;;4.55;1.67;;;;;;;17.81;55.31;96324.63;2084944;28;20091;-52
2022/04/01 04:29:12;;;;;;;4.03;1.50;;;;;;;17.84;55.30;96337.50;2081308;28;20212;-49
2022/04/01 04:30:14;;;;;;;3.95;1.30;;;;;;;17.88;55.13;96339.69;2080055;28;20056;-51
2022/04/01 04:31:27;;;;;;;3.47;1.17;;;;;;;17.88;55.07;96337.81;2078076;28;20407;-51
2022/04/01 04:32:34;;;;;;;2.20;1.35;;;;;;;17.89;55.06;96344.81;2081227;28;20045;-50
2022/04/01 04:34:45;;;;;;;4.45;1.70;;;;;;;17.93;54.99;96339.72;2075781;28;20542;-51
2022/04/01 04:35:49;;;;;;;3.95;1.42;;;;;;;17.94;54.97;96338.66;2082547;28;20052;-48
2022/04/01 04:36:52;;;;;;;7.00;2.10;;;;;;;17.95;54.92;96341.09;2080849;28;20084;-51
2022/04/01 04:37:56;;;;;;;2.25;1.67;;;;;;;17.96;54.56;96340.03;2080799;28;20099;-50
2022/04/01 04:39:02;;;;;;;2.22;1.33;;;;;;;17.97;54.71;96338.97;2082792;28;20468;-49
2022/04/01 04:40:05;;;;;;;6.88;1.83;;;;;;;17.99;54.68;96344.88;2077685;28;20056;-51
2022/04/01 04:41:08;;;;;;;4.35;1.67;;;;;;;18.01;54.69;96340.06;2080554;28;20045;-49
2022/04/01 04:42:10;;;;;;;3.50;1.88;;;;;;;18.02;54.76;96344.34;2077968;28;20048;-51
2022/04/01 04:43:12;;;;;;;4.15;1.45;;;;;;;18.03;54.72;96342.50;2083086;28;20049;-49
2022/04/01 04:44:15;;;;;;;4.20;1.55;;;;;;;18.05;54.65;96346.56;2078437;28;20041;-49
2022/04/01 04:45:17;;;;;;;3.35;1.63;;;;;;;18.06;54.51;96348.16;2078575;28;20041;-49
2022/04/01 04:46:20;;;;;;;1.00;1.00;;;;;;;18.08;54.57;96340.69;2080352;28;20055;-49
2022/04/01 04:47:26;;;;;;;1.00;0.90;;;;;;;18.11;54.57;96354.63;2074316;28;20144;-52
2022/04/01 04:48:28;;;;;;;5.65;1.83;;;;;;;18.09;54.44;96350.34;2080750;28;20884;-49
2022/04/01 04:49:29;;;;;;;3.05;1.15;;;;;;;18.10;54.66;96364.56;2075466;28;20491;-48
2022/04/01 04:50:33;;;;;;;2.38;1.40;;;;;;;18.11;54.59;96363.50;2079025;28;20392;-48
2022/04/01 04:51:35;;;;;;;5.45;1.90;;;;;;;18.15;54.52;96371.84;2079268;28;20130;-51
2022/04/01 04:52:40;;;;;;;3.80;1.27;;;;;;;18.15;54.53;96366.47;2077038;28;20049;-49
2022/04/01 04:53:44;;;;;;;2.30;1.50;;;;;;;18.15;54.57;96371.84;2074982;28;20045;-48
2022/04/01 04:54:45;;;;;;;3.03;1.30;;;;;;;18.15;54.54;96366.47;2086291;28;20048;-48
2022/04/01 04:55:50;;;;;;;2.95;1.67;;;;;;;18.16;54.25;96362.72;2087380;28;20118;-51
2022/04/01 04:56:53;;;;;;;7.78;1.52;;;;;;;18.16;54.85;96371.56;2087517;28;20044;-49
2022/04/01 04:57:54;;;;;;;4.00;1.55;;;;;;;18.16;54.45;96374.25;2087754;28;21371;-51
2022/04/01 04:58:56;;;;;;;2.60;1.40;;;;;;;18.19;54.70;96372.94;2091598;28;20047;-50
2022/04/01 04:59:58;;;;;;;2.70;1.40;;;;;;;18.19;54.41;96378.31;2090176;28;20476;-50
2022/04/01 05:01:04;;;;;;;4.15;2.30;;;;;;;18.18;54.57;96376.69;2088866;28;20052;-50
2022/04/01 05:02:10;;;;;;;3.83;2.00;;;;;;;18.19;54.31;96380.97;2083827;28;20391;-49
2022/04/01 05:03:25;;;;;;;1.95;1.10;;;;;;;18.19;54.47;96383.66;2088817;28;20123;-51
2022/04/01 05:04:44;;;;;;;2.78;1.33;;;;;;;18.18;54.32;96387.44;2090345;28;20386;-48
2022/04/01 05:05:47;;;;;;;1.33;1.23;;;;;;;18.19;54.07;96381.81;2085019;28;20057;-49
2022/04/01 05:06:54;;;;;;;3.75;1.60;;;;;;;18.22;54.20;96377.78;2089270;28;20060;-50
2022/04/01 05:08:06;;;;;;;4.22;1.30;;;;;;;18.22;54.31;96385.84;2085196;28;20083;-49